Time;durP1;ratioP1;P1;durP2;ratioP2;P2;SDS_P1;SDS_P2;PMS_P1;PMS_P2;Temp;Humidity;BMP_temperature;BMP_pressure;BME280_temperature;BME280_humidity;BME280_pressure;Samples;Min_cycle;Max_cycle;Signal;HPM_P1;HPM_P2
2021/07/03 00:01:04;;;;;;;11.35;10.25;;;;;;;15.92;94.22;101223.91;4844114;29;20038;-83
2021/07/03 00:03:31;;;;;;;15.35;10.88;;;;;;;15.73;94.29;101207.63;4838966;29;20088;-83
2021/07/03 00:05:57;;;;;;;12.38;11.07;;;;;;;15.57;93.96;101181.03;4843023;29;20038;-83
2021/07/03 00:08:27;;;;;;;12.65;10.15;;;;;;;15.88;94.21;101220.81;4838333;29;20035;-82
2021/07/03 00:10:56;;;;;;;16.25;11.60;;;;;;;15.63;94.50;101176.56;4842068;29;20034;-81
2021/07/03 00:13:22;;;;;;;12.57;11.10;;;;;;;16.36;94.44;101292.59;4845120;29;20038;-84
2021/07/03 00:15:48;;;;;;;12.40;10.93;;;;;;;15.74;94.43;101190.28;4841926;29;20030;-82
2021/07/03 00:18:13;;;;;;;13.18;11.88;;;;;;;16.19;94.58;101248.88;4842237;29;20034;-84
2021/07/03 00:20:40;;;;;;;13.15;11.85;;;;;;;16.69;94.60;101324.81;4842383;29;20064;-83
2021/07/03 00:23:06;;;;;;;12.82;11.52;;;;;;;16.74;94.94;101321.41;4839104;29;20038;-83
2021/07/03 00:25:32;;;;;;;12.20;11.00;;;;;;;16.09;94.71;101218.72;4827491;29;20049;-83
2021/07/03 00:27:59;;;;;;;13.65;11.43;;;;;;;15.91;95.17;101184.25;4835752;29;20023;-82
2021/07/03 00:30:25;;;;;;;17.15;12.00;;;;;;;15.93;94.57;101195.72;4842684;29;21636;-83
2021/07/03 00:32:50;;;;;;;13.95;10.75;;;;;;;15.93;94.65;101204.69;4839916;29;20038;-83
2021/07/03 00:35:16;;;;;;;12.82;11.52;;;;;;;16.45;94.90;101289.31;4841085;29;20109;-83
2021/07/03 00:37:42;;;;;;;11.93;10.60;;;;;;;16.74;94.62;101326.84;4841199;29;20011;-84
2021/07/03 00:40:11;;;;;;;14.88;11.45;;;;;;;15.86;94.63;101186.81;4842491;29;20049;-83
2021/07/03 00:42:37;;;;;;;12.35;10.95;;;;;;;16.30;94.73;101269.88;4843334;29;20023;-83
2021/07/03 00:45:04;;;;;;;11.20;9.98;;;;;;;15.86;94.77;101184.94;4828068;29;20062;-83
2021/07/03 00:47:30;;;;;;;11.77;10.35;;;;;;;16.54;94.83;101300.72;4846304;29;20076;-82
2021/07/03 00:49:56;;;;;;;13.40;11.25;;;;;;;16.04;94.70;101227.56;4846941;29;20011;-81
2021/07/03 00:52:22;;;;;;;11.40;10.07;;;;;;;16.31;94.72;101262.56;4847646;29;20021;-83
2021/07/03 00:54:49;;;;;;;11.10;9.95;;;;;;;15.82;94.64;101194.56;4847063;29;20053;-83
2021/07/03 00:57:16;;;;;;;12.23;9.55;;;;;;;16.71;94.82;101333.56;4842791;29;20039;-83
2021/07/03 00:59:44;;;;;;;13.27;10.38;;;;;;;15.99;94.79;101216.53;4846247;29;20098;-83
2021/07/03 01:02:12;;;;;;;11.35;9.60;;;;;;;15.87;94.83;101208.31;4847444;29;20054;-82
2021/07/03 01:04:42;;;;;;;10.75;9.65;;;;;;;16.05;94.74;101231.09;4846415;29;20082;-83
2021/07/03 01:07:10;;;;;;;11.40;9.48;;;;;;;16.12;94.75;101248.97;4843692;29;20052;-83
2021/07/03 01:09:36;;;;;;;11.07;9.98;;;;;;;15.92;94.58;101221.19;4844236;29;20089;-82
2021/07/03 01:12:03;;;;;;;14.73;9.75;;;;;;;15.87;94.58;101205.59;4840158;29;20054;-83
2021/07/03 01:14:28;;;;;;;14.43;10.95;;;;;;;16.21;94.68;101263.91;4844379;29;20034;-83
2021/07/03 01:16:54;;;;;;;14.25;10.93;;;;;;;15.95;94.85;101220.75;4843861;29;20019;-83
2021/07/03 01:19:21;;;;;;;11.80;9.80;;;;;;;15.88;94.96;101201.81;4840746;29;20233;-83
2021/07/03 01:21:54;;;;;;;14.65;11.90;;;;;;;16.66;94.76;101336.97;4840472;29;20027;-83
2021/07/03 01:24:23;;;;;;;12.43;11.02;;;;;;;15.82;94.83;101199.16;4843755;29;20025;-83
2021/07/03 01:26:51;;;;;;;15.50;10.73;;;;;;;16.38;94.83;101304.03;4841255;29;20007;-83
2021/07/03 01:29:19;;;;;;;12.27;11.02;;;;;;;16.08;94.97;101245.03;4847277;29;20090;-83
2021/07/03 01:31:46;;;;;;;11.77;10.40;;;;;;;16.08;94.99;101252.34;4846922;29;20034;-83
2021/07/03 01:34:14;;;;;;;11.68;9.95;;;;;;;15.80;94.85;101209.44;4838619;29;20048;-83
2021/07/03 01:36:41;;;;;;;11.63;10.05;;;;;;;15.77;95.06;101197.13;4841747;29;20027;-83
2021/07/03 01:39:08;;;;;;;16.85;12.20;;;;;;;16.00;95.11;101237.19;4848643;29;20062;-83
2021/07/03 01:41:35;;;;;;;12.48;11.27;;;;;;;16.11;95.40;101254.63;4849064;29;20019;-83
2021/07/03 01:44:01;;;;;;;11.32;10.23;;;;;;;16.56;95.25;101325.81;4849153;29;20030;-83
2021/07/03 01:46:27;;;;;;;12.55;11.13;;;;;;;16.10;95.39;101261.13;4850776;29;20029;-83
2021/07/03 01:48:53;;;;;;;14.27;12.73;;;;;;;16.18;95.34;101275.22;4845058;29;20015;-83
2021/07/03 01:51:19;;;;;;;15.80;11.60;;;;;;;16.25;95.65;101286.00;4843637;29;20034;-82
2021/07/03 01:53:45;;;;;;;13.10;11.80;;;;;;;16.00;95.43;101241.81;4828385;29;20086;-82
2021/07/03 01:56:11;;;;;;;16.15;12.45;;;;;;;16.03;95.42;101246.78;4832319;29;20031;-81
2021/07/03 01:58:40;;;;;;;14.38;11.52;;;;;;;15.68;95.42;101201.19;4832118;29;20035;-83
2021/07/03 02:01:06;;;;;;;11.25;10.15;;;;;;;15.63;95.40;101203.69;4847177;29;20024;-83
2021/07/03 02:03:32;;;;;;;14.02;12.63;;;;;;;15.82;95.89;101240.69;4838241;29;20015;-82
2021/07/03 02:05:58;;;;;;;14.43;12.88;;;;;;;15.90;95.82;101242.31;4840346;29;20022;-83
2021/07/03 02:08:24;;;;;;;15.70;12.00;;;;;;;15.68;95.71;101206.63;4843999;29;20076;-83
2021/07/03 02:10:50;;;;;;;15.75;12.63;;;;;;;15.88;95.89;101236.28;4843960;29;20089;-78
2021/07/03 02:13:16;;;;;;;13.57;12.15;;;;;;;15.83;95.71;101223.38;4844442;29;20014;-82
2021/07/03 02:15:42;;;;;;;13.85;12.45;;;;;;;16.48;95.80;101327.97;4840273;29;20031;-84
2021/07/03 02:18:08;;;;;;;19.30;12.48;;;;;;;16.13;95.89;101280.50;4841641;29;20038;-83
2021/07/03 02:20:34;;;;;;;16.10;13.18;;;;;;;15.69;95.78;101205.56;4840470;29;20095;-83
2021/07/03 02:23:01;;;;;;;14.80;13.23;;;;;;;15.74;96.10;101203.84;4841416;29;20057;-83
2021/07/03 02:25:29;;;;;;;13.80;12.25;;;;;;;16.47;96.12;101326.31;4840336;29;20034;-83
2021/07/03 02:27:55;;;;;;;14.65;11.40;;;;;;;15.99;96.14;101246.38;4844841;29;20014;-83
2021/07/03 02:30:22;;;;;;;15.65;13.00;;;;;;;15.95;96.04;101242.47;4840885;29;20075;-83
2021/07/03 02:32:47;;;;;;;14.10;12.73;;;;;;;15.79;96.00;101222.16;4842740;29;20027;-83
2021/07/03 02:35:17;;;;;;;18.40;15.32;;;;;;;15.81;96.35;101217.34;4841949;29;20029;-83
2021/07/03 02:37:44;;;;;;;14.95;13.45;;;;;;;15.70;96.11;101212.66;4843567;29;20066;-83
2021/07/03 02:40:12;;;;;;;15.70;14.05;;;;;;;15.64;96.35;101194.53;4844602;29;20027;-83
2021/07/03 02:42:38;;;;;;;15.27;13.85;;;;;;;15.91;96.14;101244.78;4843439;29;20079;-83
2021/07/03 02:45:07;;;;;;;16.00;14.38;;;;;;;15.73;96.18;101218.47;4840632;29;20035;-83
2021/07/03 02:47:37;;;;;;;17.45;14.77;;;;;;;15.62;95.95;101204.75;4842586;29;20082;-83
2021/07/03 02:50:09;;;;;;;13.82;12.18;;;;;;;15.56;96.19;101200.22;4843607;29;20038;-83
2021/07/03 02:52:35;;;;;;;15.43;13.60;;;;;;;15.71;96.23;101225.16;4840962;29;20043;-83
2021/07/03 02:55:08;;;;;;;12.90;11.60;;;;;;;15.55;96.05;101206.69;4840823;29;20049;-83
2021/07/03 02:57:34;;;;;;;14.40;12.73;;;;;;;15.61;95.85;101217.50;4839123;29;20109;-83
2021/07/03 02:59:59;;;;;;;13.85;12.45;;;;;;;15.62;95.86;101210.19;4841497;29;20010;-83
2021/07/03 03:02:25;;;;;;;14.35;12.23;;;;;;;15.67;95.94;101208.50;4844820;29;20098;-83
2021/07/03 03:04:51;;;;;;;14.90;12.77;;;;;;;15.82;95.51;101221.69;4847859;29;20136;-82
2021/07/03 03:07:17;;;;;;;16.85;13.10;;;;;;;15.80;94.85;101193.97;4848880;29;20046;-82
2021/07/03 03:09:43;;;;;;;15.80;12.60;;;;;;;16.46;95.26;101311.91;4848635;29;20058;-82
2021/07/03 03:12:09;;;;;;;14.23;12.73;;;;;;;16.18;95.29;101263.53;4847563;29;20042;-83
2021/07/03 03:14:35;;;;;;;17.33;12.70;;;;;;;16.05;94.71;101182.22;4843488;29;20019;-82
2021/07/03 03:17:00;;;;;;;15.30;12.85;;;;;;;16.30;93.88;101199.28;4841824;29;20046;-82
2021/07/03 03:19:26;;;;;;;17.75;13.55;;;;;;;16.52;93.36;101194.16;4847225;29;20026;-83
2021/07/03 03:21:52;;;;;;;16.98;13.00;;;;;;;16.97;91.72;101217.44;4843061;29;20050;-82
2021/07/03 03:24:18;;;;;;;15.63;13.80;;;;;;;17.41;90.99;101247.94;4839163;29;20058;-84
2021/07/03 03:26:43;;;;;;;15.40;12.35;;;;;;;17.88;89.05;101248.88;4843977;29;20039;-83
2021/07/03 03:29:09;;;;;;;14.38;12.52;;;;;;;18.36;87.80;101277.69;4844065;29;20018;-83
2021/07/03 03:31:35;;;;;;;14.75;12.00;;;;;;;18.76;86.37;101271.47;4843108;29;20035;-83
2021/07/03 03:34:01;;;;;;;12.50;11.40;;;;;;;19.38;85.13;101312.47;4843010;29;20010;-83
2021/07/03 03:36:29;;;;;;;12.20;10.35;;;;;;;19.75;83.52;101313.97;4842287;29;20010;-82
2021/07/03 03:38:55;;;;;;;13.45;10.63;;;;;;;19.61;82.65;101248.75;4843988;29;20046;-83
2021/07/03 03:41:20;;;;;;;13.30;11.18;;;;;;;19.83;81.99;101234.34;4836597;29;20047;-83
2021/07/03 03:43:46;;;;;;;12.32;11.00;;;;;;;19.97;81.03;101208.34;4843286;29;20018;-83
2021/07/03 03:46:13;;;;;;;12.15;10.95;;;;;;;20.49;79.95;101227.03;4847470;29;20021;-83
2021/07/03 03:48:39;;;;;;;13.05;10.68;;;;;;;20.80;78.90;101221.97;4845710;29;20052;-83
2021/07/03 03:51:05;;;;;;;12.32;10.98;;;;;;;20.90;77.97;101200.19;4840879;29;20046;-83
2021/07/03 03:53:31;;;;;;;11.88;9.82;;;;;;;21.88;77.09;101309.47;4845003;29;20090;-84
2021/07/03 03:55:57;;;;;;;13.60;10.30;;;;;;;21.41;76.82;101244.47;4844276;29;20035;-84
2021/07/03 03:58:22;;;;;;;10.35;9.30;;;;;;;21.10;77.85;101277.00;4843006;29;20042;-84
2021/07/03 04:00:48;;;;;;;9.30;8.32;;;;;;;20.80;77.68;101247.41;4844312;29;20034;-84
2021/07/03 04:03:14;;;;;;;11.98;8.68;;;;;;;20.49;77.27;101215.28;4840688;29;20086;-84
2021/07/03 04:05:40;;;;;;;10.93;8.02;;;;;;;21.77;75.72;101330.50;4843467;29;20017;-84
2021/07/03 04:08:06;;;;;;;10.13;8.50;;;;;;;22.21;74.57;101324.00;4839739;29;20029;-84
2021/07/03 04:10:32;;;;;;;11.23;7.82;;;;;;;21.83;73.90;101223.72;4836619;29;20070;-84
2021/07/03 04:12:58;;;;;;;8.93;8.05;;;;;;;22.05;73.07;101222.47;4845996;29;20086;-84
2021/07/03 04:15:24;;;;;;;10.02;7.72;;;;;;;22.91;72.41;101330.97;4848286;29;20018;-84
2021/07/03 04:17:49;;;;;;;9.00;6.95;;;;;;;23.01;71.91;101343.88;4847953;29;20035;-85
2021/07/03 04:20:15;;;;;;;8.63;7.35;;;;;;;22.51;71.93;101235.59;4847905;29;20046;-84
2021/07/03 04:22:41;;;;;;;7.75;7.00;;;;;;;22.61;71.24;101232.06;4847215;29;20038;-84
2021/07/03 04:25:11;;;;;;;7.90;7.10;;;;;;;22.54;70.47;101182.13;4841082;29;20030;-85
2021/07/03 04:27:38;;;;;;;8.20;6.75;;;;;;;23.02;70.01;101235.78;4845051;29;20015;-85
2021/07/03 04:30:09;;;;;;;7.80;6.70;;;;;;;22.94;69.29;101195.13;4840964;29;20045;-85
2021/07/03 04:32:35;;;;;;;7.22;6.28;;;;;;;23.73;69.84;101322.09;4840936;29;20098;-85
2021/07/03 04:35:03;;;;;;;9.57;6.45;;;;;;;22.85;70.09;101186.59;4841315;29;20046;-86
2021/07/03 04:37:30;;;;;;;8.70;6.88;;;;;;;23.77;70.07;101318.50;4844487;29;20018;-85
2021/07/03 04:39:55;;;;;;;7.88;6.30;;;;;;;23.25;69.77;101283.03;4846470;29;20041;-85
2021/07/03 04:42:24;;;;;;;9.88;6.22;;;;;;;22.72;69.81;101220.84;4842600;29;20019;-85
2021/07/03 04:44:50;;;;;;;11.23;7.00;;;;;;;22.84;69.44;101217.84;4842530;29;20042;-84
2021/07/03 04:47:18;;;;;;;7.78;6.97;;;;;;;21.57;72.47;101183.25;4842270;29;20038;-85
2021/07/03 04:49:44;;;;;;;7.47;6.63;;;;;;;20.37;75.94;101169.78;4846758;29;20018;-84
2021/07/03 04:52:10;;;;;;;9.65;7.00;;;;;;;19.83;78.47;101212.50;4840946;29;20102;-82
2021/07/03 04:54:36;;;;;;;9.25;6.90;;;;;;;19.70;79.40;101224.59;4839966;29;20038;-83
2021/07/03 04:57:09;;;;;;;8.10;7.30;;;;;;;19.23;80.42;101203.88;4840286;29;20030;-83
2021/07/03 04:59:39;;;;;;;11.13;7.53;;;;;;;19.28;81.09;101215.97;4840719;29;20112;-82
2021/07/03 05:02:06;;;;;;;7.90;7.07;;;;;;;19.19;81.26;101207.38;4841783;29;20031;-83
2021/07/03 05:04:32;;;;;;;8.18;7.18;;;;;;;19.56;81.23;101266.94;4842739;29;20015;-83
2021/07/03 05:06:58;;;;;;;11.73;6.88;;;;;;;19.55;80.92;101249.72;4833569;29;20030;-83
2021/07/03 05:09:27;;;;;;;9.60;7.25;;;;;;;19.97;79.69;101251.19;4828196;29;20015;-81
2021/07/03 05:11:53;;;;;;;11.52;6.95;;;;;;;20.54;77.18;101240.81;4828197;29;20015;-83
2021/07/03 05:14:19;;;;;;;7.72;6.75;;;;;;;20.57;75.70;101214.88;4829034;29;20038;-82
2021/07/03 05:16:45;;;;;;;7.18;6.47;;;;;;;21.60;75.47;101337.19;4841811;29;20038;-82
2021/07/03 05:19:11;;;;;;;7.57;6.40;;;;;;;21.30;74.71;101248.19;4842091;29;20023;-83
2021/07/03 05:21:42;;;;;;;9.10;5.93;;;;;;;20.98;73.60;101169.63;4844150;29;20066;-81
2021/07/03 05:24:08;;;;;;;5.95;5.35;;;;;;;20.95;72.97;101172.88;4843532;29;20034;-83
2021/07/03 05:26:34;;;;;;;8.38;5.45;;;;;;;22.08;72.60;101341.69;4840372;29;20027;-81
2021/07/03 05:29:00;;;;;;;5.85;5.35;;;;;;;21.72;71.84;101217.31;4837799;29;20061;-84
2021/07/03 05:31:26;;;;;;;8.57;5.60;;;;;;;21.89;71.38;101245.41;4847786;29;20038;-84
2021/07/03 05:33:52;;;;;;;6.13;5.45;;;;;;;22.14;71.47;101287.75;4840433;29;20086;-84
2021/07/03 05:36:18;;;;;;;6.80;5.22;;;;;;;22.06;71.33;101258.94;4838553;29;20030;-84
2021/07/03 05:38:47;;;;;;;7.70;5.40;;;;;;;22.64;71.35;101327.53;4831021;29;20045;-82
2021/07/03 05:41:15;;;;;;;5.70;4.93;;;;;;;21.92;70.41;101220.22;4834990;29;20092;-82
2021/07/03 05:43:44;;;;;;;5.85;5.25;;;;;;;21.85;70.15;101180.41;4835717;29;20039;-84
2021/07/03 05:46:11;;;;;;;6.10;5.50;;;;;;;22.32;70.00;101221.53;4848392;29;20038;-81
2021/07/03 05:48:43;;;;;;;8.20;5.38;;;;;;;22.07;69.00;101222.19;4840349;29;20045;-84
2021/07/03 05:53:47;;;;;;;7.45;5.22;;;;;;;21.97;68.73;101216.66;5775358;24;20017;-85
2021/07/03 05:56:13;;;;;;;5.57;4.60;;;;;;;22.06;68.78;101206.84;4847780;29;20030;-85
2021/07/03 05:58:41;;;;;;;6.78;5.35;;;;;;;22.72;68.87;101318.81;4849017;29;20039;-85
2021/07/03 06:03:42;;;;;;;6.97;4.60;;;;;;;21.99;68.50;101156.94;5039450;24;20059;-83
2021/07/03 06:06:10;;;;;;;6.57;4.97;;;;;;;21.88;68.03;101201.81;4829970;29;20066;-84
2021/07/03 06:24:08;;;;;;;6.65;4.75;;;;;;;22.20;68.51;101223.69;5596076;24;20090;-84
2021/07/03 06:36:54;;;;;;;7.78;3.90;;;;;;;23.33;64.14;101329.16;5109284;24;20042;-82
2021/07/03 06:39:21;;;;;;;6.30;4.03;;;;;;;22.17;62.82;101155.69;4852592;29;20049;-83
2021/07/03 06:49:32;;;;;;;3.30;2.70;;;;;;;23.50;57.70;101268.47;5012133;24;20050;-81
2021/07/03 06:51:58;;;;;;;4.85;3.03;;;;;;;23.74;56.09;101324.59;4848379;29;20065;-84
2021/07/03 07:04:54;;;;;;;3.78;2.25;;;;;;;23.72;50.53;101227.84;4891251;24;20047;-84
2021/07/03 07:07:20;;;;;;;4.65;2.40;;;;;;;24.26;52.74;101298.66;4844296;29;20082;-84
2021/07/03 07:25:22;;;;;;;2.78;2.50;;;;;;;22.98;51.19;101125.72;4923918;24;20262;-83
2021/07/03 07:27:51;;;;;;;3.70;2.50;;;;;;;23.81;51.08;101261.91;4823959;29;20039;-84
2021/07/03 07:30:20;;;;;;;3.35;2.45;;;;;;;22.87;50.53;101139.66;4831036;29;20007;-84
2021/07/03 07:32:47;;;;;;;3.30;2.40;;;;;;;23.26;49.15;101183.91;4831816;29;20022;-84
2021/07/03 07:35:13;;;;;;;2.90;2.70;;;;;;;23.25;49.35;101201.47;4825598;29;20059;-84
2021/07/03 07:37:39;;;;;;;4.03;2.40;;;;;;;24.11;49.30;101309.72;4835757;29;20027;-83
2021/07/03 07:47:51;;;;;;;4.03;2.83;;;;;;;23.84;48.23;101191.81;5882771;24;20093;-77
2021/07/03 07:52:54;;;;;;;3.92;2.53;;;;;;;24.61;48.55;101306.00;5171149;24;20122;-84
2021/07/03 07:55:20;;;;;;;3.10;2.30;;;;;;;23.52;46.63;101115.22;4841971;29;20026;-84
2021/07/03 07:57:49;;;;;;;3.83;2.38;;;;;;;23.86;47.03;101173.94;4845038;29;20041;-84
2021/07/03 08:00:17;;;;;;;3.10;2.35;;;;;;;24.59;46.52;101310.16;4846249;29;20016;-83
2021/07/03 08:07:54;;;;;;;4.65;2.75;;;;;;;23.53;48.06;101141.59;5231849;24;20042;-82
2021/07/03 08:22:02;;;;;;;6.40;3.42;;;;;;;23.87;50.92;101156.38;4873641;24;20047;-83
2021/07/03 08:24:30;;;;;;;4.38;3.40;;;;;;;24.77;51.50;101294.94;4829577;29;20027;-82
2021/07/03 08:26:56;;;;;;;5.22;3.60;;;;;;;24.13;51.56;101162.59;4840547;29;20050;-83
2021/07/03 08:31:57;;;;;;;5.28;3.70;;;;;;;24.23;52.34;101163.66;5722852;24;20063;-82
2021/07/03 08:34:23;;;;;;;4.10;3.75;;;;;;;25.16;52.41;101306.03;5177528;24;20131;-83
2021/07/03 08:36:49;;;;;;;6.10;3.83;;;;;;;23.95;53.45;101118.41;4827777;29;20039;-83
2021/07/03 08:39:20;;;;;;;4.40;4.00;;;;;;;24.73;53.08;101212.09;4827630;29;20107;-83
2021/07/03 08:41:49;;;;;;;4.72;3.90;;;;;;;24.23;54.38;101149.91;4826622;29;20034;-83
2021/07/03 08:44:17;;;;;;;4.80;4.30;;;;;;;24.11;53.73;101128.25;4910158;24;20046;-83
2021/07/03 08:46:53;;;;;;;4.82;3.97;;;;;;;25.21;54.20;101289.50;4843429;29;20042;-83
2021/07/03 08:49:19;;;;;;;5.47;4.30;;;;;;;24.57;54.01;101188.56;4841327;29;20066;-83
2021/07/03 08:51:52;;;;;;;5.70;3.97;;;;;;;25.20;53.05;101295.25;4894275;24;20081;-82
2021/07/03 08:54:18;;;;;;;5.18;4.22;;;;;;;24.47;54.44;101208.69;4831125;29;20048;-83
2021/07/03 09:04:42;;;;;;;8.98;4.38;;;;;;;25.31;54.29;101283.91;5351657;24;20050;-82
2021/07/03 09:07:19;;;;;;;5.43;3.85;;;;;;;23.99;54.52;101141.50;4836412;29;20058;-82
2021/07/03 09:09:51;;;;;;;4.10;3.70;;;;;;;23.15;55.28;101091.69;4837895;29;20018;-82
2021/07/03 09:15:14;;;;;;;6.82;3.92;;;;;;;23.87;57.88;101274.56;4970035;24;20503;-83
2021/07/03 09:17:50;;;;;;;4.47;4.07;;;;;;;22.43;57.79;101079.81;4849549;29;20066;-83
2021/07/03 09:20:22;;;;;;;4.20;3.70;;;;;;;23.42;57.58;101261.63;5069976;24;20133;-82
2021/07/03 09:30:34;;;;;;;7.68;3.90;;;;;;;22.47;58.30;101117.38;5749741;24;20056;-83
2021/07/03 09:33:02;;;;;;;6.22;4.13;;;;;;;22.92;59.14;101198.13;4847806;29;20022;-82
2021/07/03 09:35:28;;;;;;;5.00;4.50;;;;;;;22.06;60.31;101067.09;4849839;29;20041;-82
2021/07/03 09:53:25;;;;;;;8.77;4.30;;;;;;;22.63;60.03;101156.66;5310983;24;20050;-81
2021/07/03 09:55:54;;;;;;;5.55;4.35;;;;;;;23.10;61.45;101259.13;4845562;29;20050;-83
2021/07/03 09:58:22;;;;;;;5.88;5.28;;;;;;;22.07;63.03;101122.72;4850031;29;20023;-83
2021/07/03 10:03:23;;;;;;;10.68;9.10;;;;;;;22.40;66.63;101170.84;5635994;24;20066;-82
2021/07/03 10:05:57;;;;;;;8.70;7.82;;;;;;;21.96;66.32;101098.03;4845162;29;20090;-82
2021/07/03 10:08:25;;;;;;;9.88;8.40;;;;;;;22.47;68.03;101185.94;4848922;29;20144;-82
2021/07/03 10:11:02;;;;;;;10.77;9.50;;;;;;;22.85;67.96;101268.09;4848222;29;20044;-82
2021/07/03 10:13:31;;;;;;;7.53;6.72;;;;;;;21.85;66.05;101073.56;4842966;29;20071;-83
2021/07/03 10:16:08;;;;;;;6.55;5.95;;;;;;;22.13;64.86;101097.81;4847763;29;20030;-82
2021/07/03 10:18:35;;;;;;;7.05;6.35;;;;;;;22.48;64.49;101151.09;4848578;29;20022;-83
2021/07/03 10:21:17;;;;;;;8.57;6.43;;;;;;;22.43;64.50;101132.72;4847639;29;20011;-83
2021/07/03 10:23:45;;;;;;;7.40;6.70;;;;;;;22.17;64.84;101076.19;4845735;29;20049;-83
2021/07/03 10:26:13;;;;;;;6.80;6.10;;;;;;;23.18;64.45;101248.44;4843713;29;20038;-82
2021/07/03 10:28:49;;;;;;;7.07;6.43;;;;;;;22.52;64.60;101154.97;4843393;29;20045;-82
2021/07/03 10:31:17;;;;;;;8.18;6.20;;;;;;;22.26;64.03;101100.06;4844290;29;20046;-83
2021/07/03 10:33:50;;;;;;;8.98;8.07;;;;;;;22.83;64.98;101209.91;4846039;29;20054;-81
2021/07/03 10:36:30;;;;;;;10.05;8.25;;;;;;;21.71;65.81;101073.25;4848086;29;20037;-82
2021/07/03 10:38:59;;;;;;;8.85;7.95;;;;;;;21.96;66.23;101152.81;4844712;29;20041;-82
2021/07/03 10:41:29;;;;;;;8.63;7.07;;;;;;;22.55;65.45;101246.84;4847699;29;20026;-82
2021/07/03 10:44:04;;;;;;;7.80;5.40;;;;;;;21.94;63.16;101104.84;4848810;29;20081;-82
2021/07/03 10:46:35;;;;;;;4.93;4.30;;;;;;;21.72;59.47;101062.03;4848272;29;20106;-83
2021/07/03 10:49:10;;;;;;;3.80;3.50;;;;;;;22.02;57.94;101096.97;4847995;29;20091;-82
2021/07/03 10:51:41;;;;;;;4.05;3.63;;;;;;;23.21;58.22;101245.13;4842551;29;20043;-82
2021/07/03 10:54:30;;;;;;;5.03;3.80;;;;;;;22.14;56.71;101043.81;4846204;29;20038;-83
2021/07/03 10:57:07;;;;;;;4.57;4.18;;;;;;;22.12;57.85;101070.66;4851867;29;20034;-82
2021/07/03 10:59:38;;;;;;;5.32;4.25;;;;;;;23.47;56.76;101242.38;4843440;29;20037;-82
2021/07/03 11:02:15;;;;;;;5.60;4.32;;;;;;;23.60;57.47;101268.47;4846274;29;20042;-82
2021/07/03 11:04:48;;;;;;;5.40;4.90;;;;;;;23.64;58.97;101245.69;4841424;29;20042;-82
2021/07/03 11:07:23;;;;;;;5.57;4.63;;;;;;;22.93;58.84;101150.41;4847924;29;20129;-82
2021/07/03 11:09:49;;;;;;;5.95;4.75;;;;;;;22.15;59.18;101045.44;4847949;29;20014;-82
2021/07/03 11:12:20;;;;;;;6.03;4.70;;;;;;;22.04;59.72;101061.88;4838290;29;20034;-82
2021/07/03 11:14:55;;;;;;;6.97;5.07;;;;;;;23.05;61.35;101243.47;4846235;29;20018;-83
2021/07/03 11:17:21;;;;;;;;;;;;;;;22.78;61.95;101257.38;4846129;29;20049;-82
2021/07/03 11:19:51;;;;;;;5.88;5.20;;;;;;;21.87;62.89;101148.94;4846758;29;19976;-82
2021/07/03 11:22:21;;;;;;;6.20;5.45;;;;;;;21.52;63.89;101092.88;4847651;29;20025;-82
2021/07/03 11:24:52;;;;;;;6.70;6.10;;;;;;;22.70;65.84;101261.44;4845201;29;20147;-81
2021/07/03 11:27:40;;;;;;;7.57;5.15;;;;;;;22.32;64.76;101174.94;4847147;29;20023;-82
2021/07/03 11:30:25;;;;;;;7.38;5.05;;;;;;;21.66;63.54;101065.84;4842476;29;20046;-83
2021/07/03 11:32:56;;;;;;;5.85;5.25;;;;;;;21.81;64.51;101097.94;4847282;29;20026;-81
2021/07/03 11:35:23;;;;;;;6.20;5.60;;;;;;;21.88;65.56;101134.13;4847129;29;20038;-82
2021/07/03 11:37:49;;;;;;;6.28;5.68;;;;;;;22.15;64.85;101198.94;4845347;29;20097;-82
2021/07/03 11:40:23;;;;;;;7.15;6.32;;;;;;;21.90;66.80;101172.25;4847215;29;20051;-82
2021/07/03 11:42:51;;;;;;;7.45;6.28;;;;;;;21.22;66.61;101059.81;4838588;29;20043;-82
2021/07/03 11:45:25;;;;;;;7.90;4.90;;;;;;;21.21;65.31;101048.03;4829183;29;20042;-83
2021/07/03 11:47:53;;;;;;;5.43;4.85;;;;;;;21.23;65.03;101053.25;4842255;29;20030;-82
2021/07/03 11:50:24;;;;;;;7.55;5.65;;;;;;;22.62;66.44;101242.78;4848367;29;20021;-82
2021/07/03 12:00:36;;;;;;;8.75;6.15;;;;;;;21.28;69.52;101125.25;5447037;24;20093;-82
2021/07/03 12:08:13;;;;;;;7.05;6.35;;;;;;;21.28;67.49;101047.81;5655183;24;20030;-83
2021/07/03 12:21:14;;;;;;;7.80;6.70;;;;;;;21.71;65.82;101060.38;5810859;24;20017;-80
2021/07/03 12:31:48;;;;;;;5.43;4.82;;;;;;;22.75;65.97;101225.81;5676045;24;20050;-82
2021/07/03 12:34:25;;;;;;;6.00;4.93;;;;;;;22.80;64.18;101222.25;4841674;29;20042;-82
2021/07/03 12:37:04;;;;;;;8.65;4.97;;;;;;;22.38;65.32;101160.13;4841371;29;20034;-82
2021/07/03 12:42:09;;;;;;;4.80;4.30;;;;;;;21.89;64.04;101047.31;5083592;24;20060;-83
2021/07/03 12:44:44;;;;;;;6.32;4.68;;;;;;;21.74;63.90;101028.91;4854305;29;20022;-83
2021/07/03 12:47:19;;;;;;;7.03;4.43;;;;;;;22.02;62.92;101069.56;4858859;29;20040;-83
2021/07/03 12:50:00;;;;;;;7.25;4.78;;;;;;;22.98;61.55;101215.47;4857758;29;20057;-83
2021/07/03 12:52:42;;;;;;;6.57;5.40;;;;;;;21.80;62.29;101028.66;4853730;29;20019;-83
2021/07/03 12:55:10;;;;;;;5.65;5.00;;;;;;;22.26;62.25;101097.31;4857352;29;20035;-82
2021/07/03 12:57:48;;;;;;;5.22;4.72;;;;;;;21.96;62.36;101042.41;4852918;29;20074;-82
2021/07/03 13:02:47;;;;;;;4.38;3.92;;;;;;;22.19;61.84;101055.66;4826497;29;20038;-82
2021/07/03 13:05:19;;;;;;;6.10;4.03;;;;;;;23.17;60.94;101194.59;4828389;29;20112;-83
2021/07/03 13:23:17;;;;;;;6.45;5.18;;;;;;;21.94;65.22;101061.84;5443595;24;20048;-83
2021/07/03 13:33:28;;;;;;;9.38;4.93;;;;;;;22.08;68.10;101102.44;5832200;24;20049;-82
2021/07/03 13:35:54;;;;;;;6.07;5.53;;;;;;;22.21;68.94;101126.63;4845465;29;20034;-83
2021/07/03 13:38:23;;;;;;;8.02;5.88;;;;;;;21.17;69.84;100959.34;4840970;29;20041;-81
2021/07/03 13:40:51;;;;;;;6.53;5.85;;;;;;;21.67;70.52;101059.28;4844038;29;20094;-82
2021/07/03 13:43:17;;;;;;;7.90;5.97;;;;;;;21.70;71.40;101060.66;4844250;29;20027;-82
2021/07/03 13:45:48;;;;;;;7.38;5.97;;;;;;;22.43;72.34;101178.53;4844529;29;20035;-82
2021/07/03 13:48:14;;;;;;;8.45;6.70;;;;;;;22.46;72.73;101178.81;4844876;29;20018;-82
2021/07/03 13:50:43;;;;;;;10.68;6.75;;;;;;;22.37;73.41;101168.63;4839987;29;20046;-83
2021/07/03 13:53:12;;;;;;;7.72;6.68;;;;;;;21.49;74.15;101048.75;4844882;29;20013;-82
2021/07/03 13:55:38;;;;;;;8.15;6.63;;;;;;;22.25;74.20;101174.34;4845838;29;20042;-82
2021/07/03 13:58:04;;;;;;;7.68;6.50;;;;;;;21.10;74.34;100997.09;4846232;29;20084;-83
2021/07/03 14:00:33;;;;;;;9.48;6.22;;;;;;;21.82;74.39;101074.97;4846756;29;20030;-82
2021/07/03 14:03:02;;;;;;;7.93;5.85;;;;;;;21.97;74.15;101076.91;4848494;29;20026;-82
2021/07/03 14:05:28;;;;;;;7.78;5.45;;;;;;;22.61;73.96;101158.00;4850090;29;20041;-82
2021/07/03 14:07:55;;;;;;;6.65;5.82;;;;;;;22.02;73.19;101030.38;4849543;29;20038;-82
2021/07/03 14:10:21;;;;;;;6.72;5.63;;;;;;;22.42;72.92;101070.78;4843353;29;20010;-84
2021/07/03 14:20:33;;;;;;;7.05;5.63;;;;;;;22.57;72.08;101063.66;4846970;24;20050;-83
2021/07/03 14:22:59;;;;;;;6.50;5.38;;;;;;;23.27;72.14;101166.31;4831603;29;20031;-83
2021/07/03 14:33:10;;;;;;;7.28;4.95;;;;;;;22.89;71.07;101121.84;5493188;24;20042;-83
2021/07/03 14:35:36;;;;;;;6.50;5.30;;;;;;;22.02;71.14;100976.38;5348371;24;20102;-78
2021/07/03 14:40:51;;;;;;;7.55;5.10;;;;;;;21.65;70.59;100983.94;4960761;24;20081;-85
2021/07/03 14:45:52;;;;;;;6.68;5.65;;;;;;;21.79;70.92;100982.38;5311341;24;20039;-83
2021/07/03 14:53:28;;;;;;;7.05;5.53;;;;;;;22.61;71.22;101130.56;4993741;24;20046;-83
2021/07/03 14:55:53;;;;;;;5.90;4.72;;;;;;;21.96;71.02;101025.97;4844962;29;20030;-83
2021/07/03 15:03:29;;;;;;;9.27;5.07;;;;;;;21.48;71.86;100960.34;5373944;24;20113;-83
2021/07/03 15:11:06;;;;;;;6.15;5.15;;;;;;;21.31;73.19;100965.97;5480091;24;20050;-83